createdAt,value
2018-12-06T00:02:23.559Z,100.00
2018-12-06T00:04:54.520Z,100.00
2018-12-06T00:07:27.063Z,100.00
2018-12-06T00:09:58.155Z,100.00
2018-12-06T00:12:29.417Z,100.00
2018-12-06T00:15:10.624Z,100.00
2018-12-06T00:29:14.659Z,100.00
2018-12-06T00:31:45.309Z,100.00
2018-12-06T00:34:16.124Z,100.00
2018-12-06T00:36:47.115Z,100.00
2018-12-06T00:39:18.419Z,100.00
2018-12-06T00:41:50.696Z,100.00
2018-12-06T00:44:25.493Z,100.00
2018-12-06T00:47:01.179Z,100.00
2018-12-06T00:49:35.417Z,100.00
2018-12-06T00:52:11.488Z,100.00
2018-12-06T00:54:47.670Z,100.00
2018-12-06T00:57:22.219Z,100.00
2018-12-06T00:59:57.439Z,100.00
2018-12-06T01:02:31.539Z,100.00
2018-12-06T01:05:08.059Z,100.00
2018-12-06T01:07:41.743Z,100.00
2018-12-06T01:10:15.791Z,100.00
2018-12-06T01:12:50.367Z,100.00
2018-12-06T01:15:24.429Z,100.00
2018-12-06T01:18:01.095Z,100.00
2018-12-06T01:20:38.333Z,100.00
2018-12-06T01:23:12.113Z,100.00
2018-12-06T01:25:45.667Z,100.00
2018-12-06T01:28:20.214Z,100.00
2018-12-06T01:30:54.554Z,100.00
2018-12-06T01:33:27.241Z,100.00
2018-12-06T01:36:01.368Z,100.00
2018-12-06T01:38:33.828Z,100.00
2018-12-06T01:41:08.917Z,100.00
2018-12-06T01:43:42.511Z,100.00
2018-12-06T01:46:16.842Z,100.00
2018-12-06T01:48:51.469Z,100.00
2018-12-06T01:51:25.869Z,100.00
2018-12-06T01:54:00.010Z,100.00
2018-12-06T01:56:34.029Z,100.00
2018-12-06T01:59:07.109Z,100.00
2018-12-06T02:01:43.411Z,100.00
2018-12-06T02:04:17.669Z,100.00
2018-12-06T02:06:52.257Z,100.00
2018-12-06T02:09:24.268Z,100.00
2018-12-06T02:11:58.862Z,100.00
2018-12-06T02:14:32.757Z,100.00
2018-12-06T02:17:07.201Z,100.00
2018-12-06T02:19:41.964Z,100.00
2018-12-06T02:22:16.306Z,100.00
2018-12-06T02:24:48.008Z,100.00
2018-12-06T02:27:22.340Z,100.00
2018-12-06T02:29:57.002Z,100.00
2018-12-06T02:32:28.697Z,100.00
2018-12-06T02:35:03.458Z,100.00
2018-12-06T02:37:37.377Z,100.00
2018-12-06T02:40:11.764Z,100.00
2018-12-06T02:42:48.264Z,100.00
2018-12-06T02:45:23.181Z,100.00
2018-12-06T02:47:59.993Z,100.00
2018-12-06T02:50:36.680Z,100.00
2018-12-06T02:53:14.069Z,100.00
2018-12-06T02:55:44.703Z,100.00
2018-12-06T02:58:16.756Z,100.00
2018-12-06T03:00:51.067Z,100.00
2018-12-06T03:03:25.588Z,100.00
2018-12-06T03:06:06.025Z,100.00
2018-12-06T03:08:45.878Z,100.00
2018-12-06T03:11:20.362Z,100.00
2018-12-06T03:13:54.222Z,100.00
2018-12-06T03:16:36.512Z,100.00
2018-12-06T03:19:10.276Z,100.00
2018-12-06T03:21:46.853Z,100.00
2018-12-06T03:27:25.037Z,100.00
2018-12-06T03:29:56.841Z,100.00
2018-12-06T03:32:28.951Z,100.00
2018-12-06T03:35:01.042Z,100.00
2018-12-06T03:37:34.921Z,100.00
2018-12-06T03:40:11.442Z,100.00
2018-12-06T03:42:46.234Z,100.00
2018-12-06T03:45:19.831Z,100.00
2018-12-06T03:47:54.301Z,100.00
2018-12-06T03:50:30.893Z,100.00
2018-12-06T03:53:05.934Z,100.00
2018-12-06T03:55:39.989Z,100.00
2018-12-06T03:58:16.632Z,100.00
2018-12-06T04:00:50.410Z,100.00
2018-12-06T04:03:25.220Z,100.00
2018-12-06T04:05:59.439Z,100.00
2018-12-06T04:11:40.437Z,100.00
2018-12-06T04:14:15.593Z,100.00
2018-12-06T04:16:50.066Z,100.00
2018-12-06T04:19:24.033Z,100.00
2018-12-06T04:21:59.144Z,100.00
2018-12-06T04:24:33.972Z,100.00
2018-12-06T04:27:07.807Z,100.00
2018-12-06T04:29:40.188Z,100.00
2018-12-06T04:32:17.646Z,100.00
2018-12-06T04:34:52.108Z,100.00
2018-12-06T04:37:24.545Z,100.00
2018-12-06T04:39:59.310Z,100.00
2018-12-06T04:45:07.705Z,100.00
2018-12-06T04:50:13.241Z,100.00
2018-12-06T04:52:47.274Z,100.00
2018-12-06T04:55:22.009Z,100.00
2018-12-06T04:57:53.965Z,100.00
2018-12-06T05:00:31.087Z,100.00
2018-12-06T05:03:05.511Z,100.00
2018-12-06T05:05:40.089Z,100.00
2018-12-06T05:08:14.128Z,100.00
2018-12-06T05:10:48.917Z,100.00
2018-12-06T05:13:23.665Z,100.00
2018-12-06T05:15:59.930Z,100.00
2018-12-06T05:18:36.621Z,100.00
2018-12-06T05:21:12.594Z,100.00
2018-12-06T05:23:48.632Z,100.00
2018-12-06T05:26:22.734Z,100.00
2018-12-06T05:28:57.481Z,100.00
2018-12-06T05:31:28.460Z,100.00
2018-12-06T05:33:59.340Z,100.00
2018-12-06T05:36:30.342Z,100.00
2018-12-06T05:39:03.400Z,100.00
2018-12-06T05:41:34.325Z,100.00
2018-12-06T05:44:05.542Z,100.00
2018-12-06T05:46:38.596Z,100.00
2018-12-06T05:49:10.280Z,100.00
2018-12-06T05:51:41.225Z,100.00
2018-12-06T05:54:12.137Z,100.00
2018-12-06T05:56:43.379Z,100.00
2018-12-06T05:59:14.380Z,100.00
2018-12-06T06:01:45.904Z,100.00
2018-12-06T06:04:22.201Z,100.00
2018-12-06T06:06:54.215Z,100.00
2018-12-06T06:09:26.412Z,100.00
2018-12-06T06:12:00.822Z,100.00
2018-12-06T06:14:34.937Z,100.00
2018-12-06T06:17:07.532Z,100.00
2018-12-06T06:19:43.697Z,100.00
2018-12-06T06:22:21.636Z,100.00
2018-12-06T06:24:56.161Z,100.00
2018-12-06T06:27:28.266Z,100.00
2018-12-06T06:30:04.548Z,100.00
2018-12-06T06:32:42.467Z,100.00
2018-12-06T06:35:16.997Z,100.00
2018-12-06T06:37:51.140Z,100.00
2018-12-06T06:40:25.772Z,100.00
2018-12-06T06:42:57.513Z,100.00
2018-12-06T06:45:31.772Z,100.00
2018-12-06T06:48:04.549Z,100.00
2018-12-06T06:50:36.124Z,100.00
2018-12-06T06:53:07.545Z,100.00
2018-12-06T06:55:39.723Z,100.00
2018-12-06T06:58:10.704Z,100.00
2018-12-06T07:00:45.329Z,100.00
2018-12-06T07:03:16.223Z,100.00
2018-12-06T07:05:47.152Z,100.00
2018-12-06T07:08:19.288Z,100.00
2018-12-06T07:10:50.157Z,100.00
2018-12-06T07:13:21.073Z,100.00
2018-12-06T07:15:52.099Z,100.00
2018-12-06T07:18:22.991Z,100.00
2018-12-06T07:20:55.564Z,100.00
2018-12-06T07:23:26.465Z,100.00
2018-12-06T07:25:57.264Z,100.00
2018-12-06T07:28:28.085Z,100.00
2018-12-06T07:30:59.096Z,100.00
2018-12-06T07:33:30.351Z,100.00
2018-12-06T07:36:01.177Z,100.00
2018-12-06T07:38:32.347Z,100.00
2018-12-06T07:41:03.479Z,100.00
2018-12-06T07:43:34.308Z,100.00
2018-12-06T07:46:11.623Z,100.00
2018-12-06T07:48:42.741Z,100.00
2018-12-06T07:51:13.576Z,100.00
2018-12-06T07:53:44.382Z,100.00
2018-12-06T07:56:15.523Z,100.00
2018-12-06T07:58:46.360Z,100.00
2018-12-06T08:01:17.137Z,100.00
2018-12-06T08:03:47.985Z,100.00
2018-12-06T08:06:20.119Z,100.00
2018-12-06T08:08:50.954Z,100.00
2018-12-06T08:11:23.434Z,100.00
2018-12-06T08:13:54.669Z,100.00
2018-12-06T08:16:26.511Z,100.00
2018-12-06T08:18:57.303Z,100.00
2018-12-06T08:21:29.442Z,100.00
2018-12-06T08:24:00.228Z,100.00
2018-12-06T08:26:31.169Z,100.00
2018-12-06T08:29:06.242Z,100.00
2018-12-06T08:31:37.243Z,100.00
2018-12-06T08:34:15.510Z,100.00
2018-12-06T08:36:48.083Z,100.00
2018-12-06T08:39:21.155Z,100.00
2018-12-06T08:41:52.522Z,100.00
2018-12-06T08:44:25.244Z,100.00
2018-12-06T08:46:56.353Z,100.00
2018-12-06T08:49:27.481Z,100.00
2018-12-06T08:51:58.238Z,100.00
2018-12-06T08:54:29.071Z,100.00
2018-12-06T08:57:12.498Z,100.00
2018-12-06T08:59:43.256Z,100.00
2018-12-06T09:02:15.409Z,100.00
2018-12-06T09:04:46.176Z,100.00
2018-12-06T09:07:17.056Z,100.00
2018-12-06T09:09:51.573Z,100.00
2018-12-06T09:12:22.415Z,100.00
2018-12-06T09:14:53.134Z,100.00
2018-12-06T09:17:25.220Z,100.00
2018-12-06T09:19:56.228Z,100.00
2018-12-06T09:22:27.002Z,100.00
2018-12-06T09:24:57.816Z,100.00
2018-12-06T09:27:29.275Z,100.00
2018-12-06T09:30:00.150Z,100.00
2018-12-06T09:32:31.054Z,100.00
2018-12-06T09:35:03.011Z,100.00
2018-12-06T09:37:34.060Z,100.00
2018-12-06T09:40:04.990Z,100.00
2018-12-06T09:42:38.080Z,100.00
2018-12-06T09:45:09.845Z,100.00
2018-12-06T09:47:40.644Z,99.95
2018-12-06T09:50:11.522Z,98.35
2018-12-06T09:52:42.360Z,97.43
2018-12-06T09:55:13.343Z,97.02
2018-12-06T09:57:44.325Z,96.04
2018-12-06T10:00:17.613Z,96.21
2018-12-06T10:02:48.572Z,96.20
2018-12-06T10:11:22.928Z,96.19
2018-12-06T10:14:03.951Z,96.61
2018-12-06T10:17:08.323Z,95.64
2018-12-06T10:19:53.890Z,94.31
2018-12-06T10:22:44.555Z,94.06
2018-12-06T10:25:32.785Z,93.76
2018-12-06T10:28:27.134Z,93.11
2018-12-06T10:31:25.365Z,93.38
2018-12-06T10:34:07.644Z,91.53
2018-12-06T10:36:47.685Z,91.66
2018-12-06T10:39:31.928Z,91.53
2018-12-06T10:42:07.197Z,90.87
2018-12-06T10:44:44.557Z,90.93
2018-12-06T10:47:30.358Z,90.45
2018-12-06T10:50:08.252Z,90.80
2018-12-06T10:52:44.459Z,91.07
2018-12-06T10:55:16.818Z,91.91
2018-12-06T10:57:50.905Z,90.80
2018-12-06T11:00:28.139Z,91.12
2018-12-06T11:03:03.814Z,89.74
2018-12-06T11:05:38.875Z,88.66
2018-12-06T11:08:12.873Z,89.27
2018-12-06T11:10:45.581Z,88.03
2018-12-06T11:13:29.060Z,87.51
2018-12-06T11:16:07.949Z,88.70
2018-12-06T11:21:41.708Z,88.06
2018-12-06T11:24:26.564Z,86.67
2018-12-06T11:27:01.230Z,86.41
2018-12-06T11:35:40.960Z,84.80
2018-12-06T11:38:23.628Z,83.84
2018-12-06T11:41:01.222Z,83.01
2018-12-06T11:43:32.599Z,83.12
2018-12-06T11:46:03.534Z,82.14
2018-12-06T11:48:34.402Z,82.83
2018-12-06T11:51:05.902Z,82.58
2018-12-06T11:53:40.575Z,82.70
2018-12-06T11:56:18.301Z,82.89
2018-12-06T11:58:52.674Z,83.21
2018-12-06T12:01:37.760Z,83.43
2018-12-06T12:04:17.802Z,82.94
2018-12-06T12:09:58.318Z,83.25
2018-12-06T12:15:52.044Z,82.82
2018-12-06T12:21:45.302Z,82.81
2018-12-06T12:24:22.245Z,83.12
2018-12-06T12:27:02.953Z,82.92
2018-12-06T12:29:40.120Z,82.10
2018-12-06T12:32:14.660Z,82.27
2018-12-06T12:34:48.243Z,81.48
2018-12-06T12:37:26.535Z,82.07
2018-12-06T12:40:21.944Z,81.56
2018-12-06T12:43:01.350Z,82.23
2018-12-06T12:45:51.015Z,81.90
2018-12-06T12:48:36.369Z,81.65
2018-12-06T12:51:13.931Z,80.56
2018-12-06T12:54:15.433Z,80.74
2018-12-06T12:56:50.776Z,80.79
2018-12-06T12:59:31.538Z,80.77
2018-12-06T13:02:08.170Z,80.56
2018-12-06T13:04:40.140Z,80.64
2018-12-06T13:07:17.954Z,79.98
2018-12-06T13:09:49.144Z,79.89
2018-12-06T13:12:23.874Z,80.06
2018-12-06T13:14:59.118Z,80.30
2018-12-06T13:17:30.057Z,79.54
2018-12-06T13:20:02.321Z,79.96
2018-12-06T13:22:40.021Z,80.45
2018-12-06T13:25:14.742Z,80.68
2018-12-06T13:27:50.666Z,80.57
2018-12-06T13:33:36.717Z,80.26
2018-12-06T13:36:13.664Z,80.52
2018-12-06T13:38:47.905Z,81.29
2018-12-06T13:41:22.450Z,80.08
2018-12-06T13:43:54.279Z,80.13
2018-12-06T13:46:25.320Z,80.60
2018-12-06T13:48:56.333Z,80.42
2018-12-06T13:51:31.796Z,80.27
2018-12-06T13:54:08.146Z,80.28
2018-12-06T13:56:46.218Z,79.23
2018-12-06T13:59:21.393Z,78.89
2018-12-06T14:01:55.978Z,79.09
2018-12-06T14:04:26.949Z,79.31
2018-12-06T14:06:58.160Z,80.08
2018-12-06T14:09:32.937Z,81.91
2018-12-06T14:15:14.166Z,79.66
2018-12-06T14:17:54.197Z,79.43
2018-12-06T14:20:25.118Z,80.46
2018-12-06T14:22:56.801Z,79.94
2018-12-06T14:25:27.537Z,79.02
2018-12-06T14:27:58.480Z,79.66
2018-12-06T14:30:29.244Z,79.61
2018-12-06T14:33:00.229Z,80.33
2018-12-06T14:35:31.229Z,79.56
2018-12-06T14:38:03.048Z,78.99
2018-12-06T14:40:33.837Z,78.57
2018-12-06T14:43:04.689Z,78.80
2018-12-06T14:45:40.370Z,78.64
2018-12-06T14:48:15.910Z,79.02
2018-12-06T14:50:52.624Z,79.40
2018-12-06T14:53:25.713Z,81.73
2018-12-06T14:55:59.592Z,80.56
2018-12-06T14:58:33.906Z,81.15
2018-12-06T15:01:06.665Z,81.80
2018-12-06T15:03:42.748Z,82.06
2018-12-06T15:06:14.737Z,81.71
2018-12-06T15:08:49.027Z,84.13
2018-12-06T15:11:20.998Z,83.27
2018-12-06T15:13:51.751Z,85.25
2018-12-06T15:16:22.665Z,86.13
2018-12-06T15:18:53.639Z,87.25
2018-12-06T15:21:26.965Z,87.83
2018-12-06T15:23:57.934Z,88.87
2018-12-06T15:26:28.769Z,90.03
2018-12-06T15:28:59.538Z,90.70
2018-12-06T15:31:32.611Z,91.43
2018-12-06T15:34:03.467Z,92.51
2018-12-06T15:36:34.436Z,93.46
2018-12-06T15:39:09.013Z,93.59
2018-12-06T15:41:39.812Z,95.00
2018-12-06T15:44:10.726Z,95.95
2018-12-06T15:46:41.618Z,97.28
2018-12-06T15:49:12.444Z,97.44
2018-12-06T15:51:46.474Z,97.31
2018-12-06T15:54:20.839Z,97.45
2018-12-06T15:56:54.973Z,96.92
2018-12-06T15:59:30.616Z,97.09
2018-12-06T16:02:04.467Z,97.02
2018-12-06T16:04:38.918Z,96.17
2018-12-06T16:07:15.267Z,96.23
2018-12-06T16:09:49.088Z,95.85
2018-12-06T16:12:26.542Z,95.59
2018-12-06T16:15:01.095Z,95.44
2018-12-06T16:17:37.429Z,95.39
2018-12-06T16:20:11.591Z,95.17
2018-12-06T16:22:46.373Z,95.62
2018-12-06T16:25:19.328Z,95.56
2018-12-06T16:27:50.282Z,95.60
2018-12-06T16:30:21.131Z,95.51
2018-12-06T16:32:55.578Z,95.72
2018-12-06T16:35:30.499Z,95.64
2018-12-06T16:38:04.410Z,95.58
2018-12-06T16:40:35.565Z,95.53
2018-12-06T16:43:10.213Z,95.99
2018-12-06T16:45:41.991Z,96.31
2018-12-06T16:48:13.216Z,96.49
2018-12-06T16:50:44.056Z,96.56
2018-12-06T16:53:14.812Z,97.22
2018-12-06T16:55:45.769Z,97.06
2018-12-06T16:58:16.650Z,97.25
2018-12-06T17:00:57.045Z,97.18
2018-12-06T17:03:28.317Z,97.62
2018-12-06T17:06:02.638Z,98.21
2018-12-06T17:08:34.545Z,99.83
2018-12-06T17:11:11.045Z,100.00
2018-12-06T17:13:48.078Z,100.00
2018-12-06T17:16:22.531Z,100.00
2018-12-06T17:18:56.449Z,100.00
2018-12-06T17:21:30.631Z,100.00
2018-12-06T17:24:10.524Z,99.78
2018-12-06T17:26:47.557Z,99.23
2018-12-06T17:29:22.347Z,99.25
2018-12-06T17:31:56.390Z,99.15
2018-12-06T17:34:29.006Z,99.67
2018-12-06T17:37:05.147Z,99.24
2018-12-06T17:39:36.389Z,99.27
2018-12-06T17:42:09.917Z,99.98
2018-12-06T17:44:43.411Z,100.00
2018-12-06T17:47:35.026Z,99.22
2018-12-06T17:53:21.637Z,99.45
2018-12-06T17:55:56.813Z,99.25
2018-12-06T17:58:32.410Z,99.35
2018-12-06T18:01:07.376Z,99.65
2018-12-06T18:03:45.116Z,100.00
2018-12-06T18:06:25.337Z,100.00
2018-12-06T18:09:08.521Z,99.92
2018-12-06T18:11:41.324Z,100.00
2018-12-06T18:14:15.862Z,100.00
2018-12-06T18:16:50.728Z,99.57
2018-12-06T18:19:26.638Z,98.94
2018-12-06T18:22:03.203Z,99.01
2018-12-06T18:24:37.923Z,99.22
2018-12-06T18:27:12.677Z,99.15
2018-12-06T18:29:45.634Z,99.88
2018-12-06T18:32:17.860Z,100.00
2018-12-06T18:35:09.638Z,100.00
2018-12-06T18:37:43.884Z,100.00
2018-12-06T18:40:16.569Z,100.00
2018-12-06T18:42:54.749Z,100.00
2018-12-06T18:45:30.268Z,100.00
2018-12-06T18:48:04.942Z,100.00
2018-12-06T18:53:36.089Z,100.00
2018-12-06T18:56:13.184Z,100.00
2018-12-06T19:01:52.165Z,100.00
2018-12-06T19:07:46.157Z,100.00
2018-12-06T19:23:04.000Z,100.00
2018-12-06T19:25:55.565Z,100.00
2018-12-06T19:32:10.430Z,100.00
2018-12-06T19:34:50.214Z,100.00
2018-12-06T19:40:34.607Z,100.00
2018-12-06T19:49:20.113Z,100.00
2018-12-06T19:54:57.350Z,100.00
2018-12-06T19:57:36.254Z,100.00
2018-12-06T20:00:22.169Z,100.00
2018-12-06T20:02:58.340Z,99.24
2018-12-06T20:14:34.413Z,97.52
2018-12-06T20:17:13.573Z,97.13
2018-12-06T20:19:54.585Z,96.33
2018-12-06T20:22:33.277Z,96.77
2018-12-06T20:28:11.966Z,96.72
2018-12-06T20:30:46.779Z,96.65
2018-12-06T20:33:38.296Z,96.23
2018-12-06T20:38:01.853Z,94.71
2018-12-06T20:53:02.097Z,93.26
2018-12-06T20:58:39.179Z,92.51
2018-12-06T21:01:16.080Z,92.37
2018-12-06T21:03:56.418Z,91.31
2018-12-06T21:06:36.476Z,91.48
2018-12-06T21:09:25.068Z,91.75
2018-12-06T21:12:10.917Z,90.33
2018-12-06T21:26:54.480Z,91.56
2018-12-06T21:29:37.678Z,91.35
2018-12-06T21:32:15.671Z,90.70
2018-12-06T21:34:46.567Z,91.09
2018-12-06T21:37:18.171Z,91.63
2018-12-06T21:39:50.956Z,91.85
2018-12-06T21:42:22.181Z,91.77
2018-12-06T21:44:53.576Z,91.97
2018-12-06T21:47:27.017Z,92.12
2018-12-06T21:50:03.248Z,91.46
2018-12-06T21:55:14.400Z,91.89
2018-12-06T21:57:45.247Z,91.37
2018-12-06T22:00:16.397Z,91.07
2018-12-06T22:02:59.144Z,91.48
2018-12-06T22:05:34.818Z,90.88
2018-12-06T22:11:06.038Z,89.93
2018-12-06T22:13:41.564Z,89.78
2018-12-06T22:16:18.609Z,89.63
2018-12-06T22:18:53.492Z,90.03
2018-12-06T22:21:28.485Z,89.69
2018-12-06T22:27:06.229Z,88.72
2018-12-06T22:29:47.012Z,88.67
2018-12-06T22:32:27.120Z,88.57
2018-12-06T22:35:08.565Z,89.15
2018-12-06T22:37:43.205Z,88.86
2018-12-06T22:40:15.608Z,88.51
2018-12-06T22:42:52.362Z,87.96
2018-12-06T22:45:58.409Z,87.78
2018-12-06T22:48:31.253Z,88.04
2018-12-06T22:51:05.785Z,88.11
2018-12-06T22:53:43.398Z,88.52
2018-12-06T22:56:14.636Z,88.57
2018-12-06T22:58:45.411Z,88.41
2018-12-06T23:01:18.810Z,87.51
2018-12-06T23:03:54.368Z,87.02
2018-12-06T23:06:29.354Z,87.62
2018-12-06T23:09:08.034Z,87.57
2018-12-06T23:11:40.285Z,87.76
2018-12-06T23:14:11.535Z,87.85
2018-12-06T23:16:43.667Z,88.73
2018-12-06T23:19:14.548Z,89.45
2018-12-06T23:21:47.266Z,88.97
2018-12-06T23:24:21.054Z,87.74
2018-12-06T23:26:58.642Z,88.49
2018-12-06T23:29:35.366Z,88.61
2018-12-06T23:32:12.852Z,88.70
2018-12-06T23:34:49.500Z,88.33
2018-12-06T23:37:21.024Z,89.04
2018-12-06T23:39:52.497Z,88.34
2018-12-06T23:42:26.590Z,89.15
2018-12-06T23:44:58.446Z,89.24
2018-12-06T23:47:33.263Z,88.28
2018-12-06T23:50:05.522Z,88.59
2018-12-06T23:52:41.462Z,88.84
2018-12-06T23:55:15.822Z,89.01
2018-12-06T23:57:48.401Z,88.68
